Time;durP1;ratioP1;P1;durP2;ratioP2;P2;SDS_P1;SDS_P2;PMS_P1;PMS_P2;Temp;Humidity;BMP_temperature;BMP_pressure;BME280_temperature;BME280_humidity;BME280_pressure;Samples;Min_cycle;Max_cycle;Signal;HPM_P1;HPM_P2
2023/09/05 00:01:49;;;;;;;74.10;21.77;;;19.90;1.00;;;;;;5132070;27;20437;-84
2023/09/05 00:04:15;;;;;;;72.33;11.93;;;19.90;1.00;;;;;;5150189;27;20419;-84
2023/09/05 00:06:41;;;;;;;72.23;12.00;;;19.80;1.00;;;;;;5046703;28;20447;-84
2023/09/05 00:09:07;;;;;;;71.37;11.47;;;19.80;1.00;;;;;;5044554;28;20212;-84
2023/09/05 00:14:37;;;;;;;73.07;15.63;;;19.70;1.00;;;;;;5156138;27;21032;-83
2023/09/05 00:17:03;;;;;;;74.67;19.17;;;19.60;1.00;;;;;;5150554;27;20423;-84
2023/09/05 00:19:29;;;;;;;71.63;14.10;;;19.70;1.00;;;;;;5153092;27;20216;-83
2023/09/05 00:21:55;;;;;;;72.20;13.60;;;19.70;1.00;;;;;;5134556;28;20430;-84
2023/09/05 00:24:35;;;;;;;72.07;13.90;;;19.60;1.00;;;;;;5125216;28;20179;-84
2023/09/05 00:27:07;;;;;;;72.67;15.67;;;19.60;1.00;;;;;;5083943;28;20208;-84
2023/09/05 00:29:33;;;;;;;74.30;17.10;;;19.60;1.00;;;;;;5095189;28;20409;-84
2023/09/05 00:31:59;;;;;;;72.10;10.50;;;19.60;1.00;;;;;;5081816;28;20415;-84
2023/09/05 00:34:33;;;;;;;72.43;11.70;;;19.50;1.00;;;;;;5035855;28;20460;-84
2023/09/05 00:39:02;;;;;;;71.03;12.00;;;19.60;1.00;;;;;;5156343;27;20334;-84
2023/09/05 00:41:28;;;;;;;72.73;9.40;;;19.60;1.00;;;;;;5112692;28;20455;-84
2023/09/05 00:43:54;;;;;;;71.27;10.03;;;19.60;1.00;;;;;;5134830;28;20498;-84
2023/09/05 00:46:20;;;;;;;72.70;11.90;;;19.60;1.00;;;;;;5134660;28;20475;-84
2023/09/05 00:48:45;;;;;;;70.80;9.27;;;19.60;1.00;;;;;;5093714;28;20249;-84
2023/09/05 00:51:11;;;;;;;69.67;8.87;;;19.50;1.00;;;;;;5082698;28;20195;-84
2023/09/05 00:53:37;;;;;;;71.23;10.70;;;19.50;1.00;;;;;;5071663;28;20197;-84
2023/09/05 00:56:02;;;;;;;70.27;9.37;;;19.50;1.00;;;;;;5001403;28;20700;-84
2023/09/05 00:58:28;;;;;;;69.80;9.30;;;19.40;1.00;;;;;;4945510;28;20216;-84
2023/09/05 01:03:31;;;;;;;75.40;18.63;;;19.40;1.00;;;;;;5157181;27;20519;-85
2023/09/05 01:06:08;;;;;;;72.70;16.63;;;19.30;1.00;;;;;;5133118;27;20420;-84
2023/09/05 01:08:52;;;;;;;72.43;15.20;;;19.40;1.00;;;;;;5132943;28;20257;-84
2023/09/05 01:11:20;;;;;;;73.07;16.50;;;19.40;1.00;;;;;;5075182;28;20479;-84
2023/09/05 01:13:45;;;;;;;73.20;17.57;;;19.40;1.00;;;;;;5027173;28;20418;-84
2023/09/05 01:16:11;;;;;;;77.77;20.90;;;19.30;1.00;;;;;;5081516;28;20452;-84
2023/09/05 01:18:40;;;;;;;75.17;24.23;;;19.30;1.00;;;;;;5094197;28;20643;-84
2023/09/05 01:21:24;;;;;;;74.97;24.73;;;19.30;1.00;;;;;;5110032;28;20546;-83
2023/09/05 01:24:15;;;;;;;76.67;22.90;;;19.40;1.00;;;;;;5060332;28;20427;-84
2023/09/05 01:29:15;;;;;;;78.30;30.03;;;19.30;1.00;;;;;;5156788;27;20284;-84
2023/09/05 01:31:43;;;;;;;78.00;26.90;;;19.20;1.00;;;;;;5132260;28;20893;-84
2023/09/05 01:34:09;;;;;;;77.00;25.50;;;19.20;1.00;;;;;;5135776;28;20412;-84
2023/09/05 01:36:34;;;;;;;78.20;28.40;;;19.20;1.00;;;;;;5135326;28;20469;-84
2023/09/05 01:39:00;;;;;;;78.20;29.10;;;19.20;1.00;;;;;;5125725;28;20183;-84
2023/09/05 01:41:26;;;;;;;76.17;25.57;;;19.20;1.00;;;;;;5126056;28;20205;-84
2023/09/05 01:43:52;;;;;;;78.87;29.37;;;19.10;1.00;;;;;;5114079;28;20493;-84
2023/09/05 01:46:18;;;;;;;77.40;27.43;;;19.10;1.00;;;;;;5050109;28;20220;-83
2023/09/05 01:48:44;;;;;;;77.60;31.17;;;19.10;1.00;;;;;;5033728;28;20577;-84
2023/09/05 01:54:07;;;;;;;75.73;27.20;;;19.10;1.00;;;;;;5155785;27;20515;-84
2023/09/05 01:56:33;;;;;;;75.73;26.03;;;19.10;1.00;;;;;;5150620;27;20759;-83
2023/09/05 01:58:59;;;;;;;76.90;28.80;;;19.10;1.00;;;;;;5154180;27;20190;-83
2023/09/05 02:01:24;;;;;;;76.37;29.40;;;19.10;1.00;;;;;;5125359;28;20203;-83
2023/09/05 02:03:50;;;;;;;76.63;26.20;;;19.10;1.00;;;;;;5108078;28;20190;-83
2023/09/05 02:06:16;;;;;;;76.10;24.57;;;19.10;1.00;;;;;;5130875;27;20745;-84
2023/09/05 02:08:42;;;;;;;76.90;26.23;;;19.10;1.00;;;;;;5124881;28;20183;-83
2023/09/05 02:11:09;;;;;;;75.30;23.73;;;19.10;1.00;;;;;;4985016;28;20370;-83
2023/09/05 02:13:35;;;;;;;75.00;24.00;;;19.00;1.00;;;;;;4926799;28;20483;-83
2023/09/05 02:18:19;;;;;;;75.10;23.47;;;19.00;1.00;;;;;;5155972;27;20285;-84
2023/09/05 02:20:45;;;;;;;76.37;24.70;;;19.00;1.00;;;;;;5118772;28;20820;-83
2023/09/05 02:23:10;;;;;;;77.40;22.20;;;19.00;1.00;;;;;;5134169;28;20170;-83
2023/09/05 02:25:36;;;;;;;75.50;25.50;;;18.90;1.00;;;;;;5133850;28;20534;-83
2023/09/05 02:28:05;;;;;;;74.67;21.60;;;18.90;1.00;;;;;;5124785;28;20178;-84
2023/09/05 02:30:31;;;;;;;74.40;21.87;;;18.90;1.00;;;;;;5121626;28;20241;-83
2023/09/05 02:32:57;;;;;;;76.80;21.10;;;19.00;1.00;;;;;;5127361;28;20416;-84
2023/09/05 02:35:24;;;;;;;77.27;20.20;;;19.00;1.00;;;;;;5109575;28;20172;-84
2023/09/05 02:37:55;;;;;;;74.27;21.70;;;19.10;1.00;;;;;;5011288;28;20463;-84
2023/09/05 02:40:21;;;;;;;73.40;19.63;;;19.00;1.00;;;;;;5001035;28;20445;-84
2023/09/05 02:44:31;;;;;;;73.07;17.63;;;18.90;1.00;;;;;;5156176;27;20855;-84
2023/09/05 02:46:57;;;;;;;74.20;18.30;;;18.80;1.00;;;;;;5150760;27;20415;-84
2023/09/05 02:49:22;;;;;;;73.87;17.10;;;18.70;1.00;;;;;;5155383;27;20209;-84
2023/09/05 02:51:48;;;;;;;75.17;17.80;;;18.70;1.00;;;;;;5134049;28;20189;-84
2023/09/05 02:54:14;;;;;;;78.20;16.87;;;18.60;1.00;;;;;;5125328;28;20601;-84
2023/09/05 02:56:39;;;;;;;73.40;15.83;;;18.50;1.00;;;;;;5126830;28;20201;-84
2023/09/05 02:59:05;;;;;;;77.90;18.97;;;18.40;1.00;;;;;;5130457;28;20263;-80
2023/09/05 03:01:31;;;;;;;73.77;17.83;;;18.40;1.00;;;;;;5128351;28;20211;-84
2023/09/05 03:03:56;;;;;;;76.50;19.43;;;18.30;1.00;;;;;;5057147;28;20244;-84
2023/09/05 03:09:19;;;;;;;75.00;17.60;;;18.30;1.00;;;;;;5155909;27;20514;-84
2023/09/05 03:11:45;;;;;;;74.13;18.77;;;18.30;1.00;;;;;;5150787;27;20766;-84
2023/09/05 03:14:11;;;;;;;74.63;19.17;;;18.30;1.00;;;;;;5155164;27;20190;-83
2023/09/05 03:16:39;;;;;;;73.30;17.90;;;18.30;1.00;;;;;;5154123;27;20177;-84
2023/09/05 03:19:05;;;;;;;75.00;18.90;;;18.30;1.00;;;;;;5109169;28;20182;-84
2023/09/05 03:21:31;;;;;;;78.60;17.97;;;18.30;1.00;;;;;;5074508;28;20541;-83
2023/09/05 03:23:57;;;;;;;74.40;20.40;;;18.40;1.00;;;;;;5102936;28;20189;-84
2023/09/05 03:26:22;;;;;;;74.07;18.67;;;18.40;1.00;;;;;;5124283;28;20623;-84
2023/09/05 03:28:48;;;;;;;74.53;17.13;;;18.40;1.00;;;;;;5081467;28;20461;-84
2023/09/05 03:31:14;;;;;;;72.90;17.53;;;18.40;1.00;;;;;;5037898;28;20213;-84
2023/09/05 03:34:48;;;;;;;73.27;19.47;;;18.30;1.00;;;;;;5156346;27;20506;-84
2023/09/05 03:37:15;;;;;;;73.70;19.00;;;18.40;2.80;;;;;;5127188;28;20428;-84
2023/09/05 03:39:41;;;;;;;72.77;18.03;;;18.40;1.20;;;;;;5152319;27;20927;-84
2023/09/05 03:42:07;;;;;;;78.20;17.03;;;18.30;3.90;;;;;;5134123;28;20411;-84
2023/09/05 03:44:33;;;;;;;72.70;17.87;;;18.20;5.50;;;;;;5094477;28;20431;-84
2023/09/05 03:46:59;;;;;;;74.43;21.63;;;18.20;6.50;;;;;;5050924;28;20259;-84
2023/09/05 03:49:24;;;;;;;74.00;20.23;;;18.20;9.90;;;;;;5047227;28;20181;-84
2023/09/05 03:51:50;;;;;;;73.97;19.23;;;18.10;10.60;;;;;;5030345;28;20530;-84
2023/09/05 03:54:15;;;;;;;74.37;21.57;;;18.10;8.20;;;;;;4912742;29;20260;-84
2023/09/05 03:56:41;;;;;;;72.47;17.43;;;18.10;11.10;;;;;;4892364;29;20199;-84
2023/09/05 04:01:28;;;;;;;73.10;20.80;;;17.90;7.40;;;;;;5138543;27;20310;-84
2023/09/05 04:03:54;;;;;;;73.57;19.80;;;17.80;10.90;;;;;;5149626;27;20434;-84
2023/09/05 04:06:19;;;;;;;73.30;20.40;;;17.80;7.40;;;;;;5155481;27;20411;-84
2023/09/05 04:08:45;;;;;;;73.17;18.30;;;17.80;10.60;;;;;;5154975;27;20290;-84
2023/09/05 04:11:11;;;;;;;75.00;21.87;;;17.80;9.30;;;;;;5113416;28;20205;-84
2023/09/05 04:13:36;;;;;;;74.27;22.93;;;17.80;8.00;;;;;;5096554;28;20194;-84
2023/09/05 04:16:05;;;;;;;73.77;20.73;;;17.80;9.70;;;;;;5113701;28;20277;-83
2023/09/05 04:18:32;;;;;;;72.10;14.97;;;17.80;5.70;;;;;;5114339;28;20179;-84
2023/09/05 04:20:58;;;;;;;75.57;17.10;;;17.90;4.20;;;;;;4998905;28;20470;-84
2023/09/05 04:26:02;;;;;;;75.20;24.80;;;17.90;3.20;;;;;;5157111;27;20288;-84
2023/09/05 04:28:29;;;;;;;75.30;25.73;;;18.00;13.40;;;;;;5148462;27;20770;-84
2023/09/05 04:30:55;;;;;;;76.03;24.47;;;17.90;12.50;;;;;;5121958;28;20458;-84
2023/09/05 04:33:32;;;;;;;77.03;27.17;;;17.90;15.60;;;;;;5119638;28;20413;-84
2023/09/05 04:35:58;;;;;;;79.00;29.33;;;17.90;18.70;;;;;;5101796;28;20410;-84
2023/09/05 04:38:24;;;;;;;76.70;27.67;;;17.90;18.50;;;;;;5092855;28;20429;-84
2023/09/05 04:40:50;;;;;;;76.60;29.33;;;17.90;14.80;;;;;;5106330;28;20943;-84
2023/09/05 04:43:15;;;;;;;77.57;25.37;;;17.90;17.70;;;;;;5093387;28;20251;-84
2023/09/05 04:45:41;;;;;;;77.90;30.63;;;17.90;17.00;;;;;;5106824;28;20195;-84
2023/09/05 04:53:18;;;;;;;80.17;34.87;;;17.70;22.60;;;;;;5164397;27;20515;-83
2023/09/05 04:55:44;;;;;;;81.53;40.07;;;17.70;29.20;;;;;;5140515;27;20428;-82
2023/09/05 04:58:12;;;;;;;84.97;40.43;;;17.60;28.40;;;;;;5145629;27;20204;-83
2023/09/05 05:00:38;;;;;;;81.17;42.87;;;17.60;31.90;;;;;;5133106;28;20456;-81
2023/09/05 05:03:04;;;;;;;84.47;46.53;;;17.50;35.90;;;;;;5130965;28;20422;-83
2023/09/05 05:05:29;;;;;;;85.27;51.87;;;17.60;33.80;;;;;;5092216;28;20418;-82
2023/09/05 05:07:55;;;;;;;83.37;42.43;;;17.50;35.00;;;;;;5118804;28;20424;-83
2023/09/05 05:10:21;;;;;;;83.23;48.00;;;17.50;34.60;;;;;;5117733;28;20199;-82
2023/09/05 05:12:47;;;;;;;82.00;39.30;;;17.50;35.60;;;;;;4933723;28;20246;-82
2023/09/05 05:17:13;;;;;;;81.03;35.37;;;17.50;26.10;;;;;;5162087;27;21029;-82
2023/09/05 05:19:39;;;;;;;80.00;36.53;;;17.60;17.80;;;;;;5155351;27;20452;-82
2023/09/05 05:22:05;;;;;;;81.40;39.83;;;17.70;20.40;;;;;;5105079;28;20188;-82
2023/09/05 05:24:32;;;;;;;82.07;40.90;;;17.70;13.40;;;;;;5141209;28;20451;-82
2023/09/05 05:26:57;;;;;;;78.23;31.30;;;17.70;18.00;;;;;;5079414;28;20452;-82
2023/09/05 05:29:24;;;;;;;77.47;30.77;;;17.80;13.30;;;;;;5067933;28;20450;-83
2023/09/05 05:31:49;;;;;;;80.60;35.50;;;17.80;9.80;;;;;;4898343;28;1357885;-82
2023/09/05 05:34:16;;;;;;;80.07;35.70;;;17.80;7.40;;;;;;4705768;29;20218;-82
2023/09/05 05:36:41;;;;;;;79.03;27.70;;;17.90;3.80;;;;;;4635334;30;20229;-83
2023/09/05 05:39:07;;;;;;;79.17;31.70;;;18.00;1.00;;;;;;4620925;31;20444;-83
2023/09/05 05:41:35;;;;;;;78.77;33.87;;;18.00;1.00;;;;;;4632007;30;20233;-83
2023/09/05 05:44:01;;;;;;;74.80;23.13;;;18.10;1.00;;;;;;4619456;31;20625;-83
2023/09/05 05:46:27;;;;;;;79.07;29.27;;;18.10;1.00;;;;;;4619207;31;20435;-84
2023/09/05 05:48:53;;;;;;;80.20;31.20;;;18.20;1.00;;;;;;4630857;30;20193;-84
2023/09/05 05:51:18;;;;;;;79.57;33.40;;;18.30;1.00;;;;;;4631977;30;20233;-84
2023/09/05 05:53:46;;;;;;;78.40;29.00;;;18.30;1.00;;;;;;4631683;30;20181;-83
2023/09/05 05:56:12;;;;;;;78.50;19.80;;;18.40;1.00;;;;;;4619278;31;20304;-83
2023/09/05 05:58:38;;;;;;;75.50;21.77;;;18.50;1.00;;;;;;4631762;30;20437;-83
2023/09/05 06:01:06;;;;;;;76.27;26.40;;;18.50;1.00;;;;;;4619029;31;20445;-84
2023/09/05 06:03:34;;;;;;;73.30;19.57;;;18.60;1.00;;;;;;4618738;31;20418;-83
2023/09/05 06:06:00;;;;;;;73.33;17.47;;;18.60;1.00;;;;;;4618634;31;20433;-84
2023/09/05 06:08:26;;;;;;;72.27;15.53;;;18.80;1.00;;;;;;4618449;31;20421;-84
2023/09/05 06:10:52;;;;;;;74.67;15.97;;;18.80;1.00;;;;;;4630918;30;20455;-83
2023/09/05 06:13:17;;;;;;;77.90;27.40;;;18.80;1.00;;;;;;4631108;30;20200;-83
2023/09/05 06:15:43;;;;;;;71.27;15.93;;;18.90;1.00;;;;;;4618365;31;20340;-84
2023/09/05 06:18:09;;;;;;;76.80;15.43;;;19.00;1.00;;;;;;4618152;31;20548;-83
2023/09/05 06:20:35;;;;;;;72.43;13.20;;;19.10;1.00;;;;;;4616763;30;20202;-84
2023/09/05 06:23:02;;;;;;;72.20;14.60;;;19.20;1.00;;;;;;4637810;30;20250;-83
2023/09/05 06:25:27;;;;;;;74.07;16.17;;;19.20;1.00;;;;;;4625842;31;20429;-83
2023/09/05 06:27:53;;;;;;;72.10;13.90;;;19.20;1.00;;;;;;4617274;31;20460;-83
2023/09/05 06:30:20;;;;;;;70.87;14.03;;;19.30;1.00;;;;;;4628268;30;20233;-82
2023/09/05 06:32:46;;;;;;;79.93;18.77;;;19.30;1.00;;;;;;4740528;29;20930;-83
2023/09/05 06:35:11;;;;;;;75.00;19.93;;;19.40;1.00;;;;;;4877276;29;20472;-82
2023/09/05 06:37:37;;;;;;;73.87;18.53;;;19.40;1.00;;;;;;4891860;29;20458;-83
2023/09/05 06:40:14;;;;;;;76.20;21.73;;;19.40;1.00;;;;;;4859729;29;20196;-83
2023/09/05 06:42:40;;;;;;;73.00;18.13;;;19.50;1.00;;;;;;4886527;29;20418;-83
2023/09/05 06:45:06;;;;;;;76.63;20.10;;;19.50;1.00;;;;;;4856118;29;20437;-82
2023/09/05 06:47:32;;;;;;;74.33;19.90;;;19.60;1.00;;;;;;4858656;29;20442;-82
2023/09/05 06:49:58;;;;;;;72.97;19.90;;;19.60;1.00;;;;;;4858345;29;20505;-82
2023/09/05 06:52:24;;;;;;;74.07;20.23;;;19.70;1.00;;;;;;4887608;29;20185;-82
2023/09/05 06:54:50;;;;;;;74.27;19.43;;;19.80;1.00;;;;;;4858471;29;20422;-81
2023/09/05 06:57:17;;;;;;;76.10;22.93;;;19.80;1.00;;;;;;4858097;29;20228;-82
2023/09/05 06:59:43;;;;;;;74.23;23.50;;;19.90;1.00;;;;;;4887503;29;20272;-82
2023/09/05 07:02:08;;;;;;;75.43;20.73;;;19.90;1.00;;;;;;4857457;29;20413;-82
2023/09/05 07:04:36;;;;;;;74.47;22.27;;;20.00;1.00;;;;;;4857243;29;20438;-82
2023/09/05 07:07:03;;;;;;;74.30;21.27;;;20.00;1.00;;;;;;4857559;29;20241;-83
2023/09/05 07:09:29;;;;;;;72.67;17.47;;;20.10;1.00;;;;;;4856586;29;20446;-82
2023/09/05 07:11:56;;;;;;;76.90;20.40;;;20.20;1.00;;;;;;4886166;29;20429;-82
2023/09/05 07:14:22;;;;;;;74.20;21.10;;;20.20;1.00;;;;;;4886127;29;20445;-82
2023/09/05 07:16:47;;;;;;;76.67;19.90;;;20.30;1.00;;;;;;4856651;29;21054;-82
2023/09/05 07:19:15;;;;;;;74.10;16.37;;;20.30;1.00;;;;;;4857475;29;20807;-82
2023/09/05 07:21:40;;;;;;;75.77;18.30;;;20.40;1.00;;;;;;4857132;29;20210;-82
2023/09/05 07:24:11;;;;;;;74.80;19.43;;;20.50;1.00;;;;;;4856830;29;20473;-82
2023/09/05 07:26:38;;;;;;;76.20;22.80;;;20.60;1.00;;;;;;4856651;29;20179;-82
2023/09/05 07:29:13;;;;;;;75.17;21.40;;;20.60;1.00;;;;;;4855605;29;20421;-83
2023/09/05 07:31:40;;;;;;;75.87;23.67;;;20.70;1.00;;;;;;4824734;29;1136763;-83
2023/09/05 07:34:06;;;;;;;76.50;27.20;;;20.70;1.00;;;;;;4922352;29;20651;-82
2023/09/05 07:36:33;;;;;;;75.83;25.87;;;20.70;1.00;;;;;;4912131;29;20927;-83
2023/09/05 07:38:59;;;;;;;76.67;27.07;;;20.70;1.00;;;;;;4911451;29;20407;-82
2023/09/05 07:41:25;;;;;;;77.30;27.90;;;20.80;1.00;;;;;;4912470;29;20800;-82
2023/09/05 07:43:51;;;;;;;76.87;26.40;;;20.90;1.00;;;;;;4912663;29;20419;-82
2023/09/05 07:46:17;;;;;;;76.30;23.47;;;21.00;1.00;;;;;;4912068;29;20183;-83
2023/09/05 07:48:43;;;;;;;76.37;26.17;;;21.00;1.00;;;;;;4911612;29;20189;-82
2023/09/05 07:51:08;;;;;;;76.80;25.77;;;21.00;1.00;;;;;;4927003;29;20442;-83
2023/09/05 07:53:35;;;;;;;82.20;31.73;;;21.10;1.00;;;;;;4912195;29;20427;-82
2023/09/05 07:56:03;;;;;;;76.20;26.00;;;21.20;1.00;;;;;;4911151;29;20250;-82
2023/09/05 07:58:29;;;;;;;74.47;18.20;;;21.30;1.00;;;;;;4910940;29;20418;-82
2023/09/05 08:00:55;;;;;;;77.37;18.87;;;21.30;1.00;;;;;;4911009;29;20466;-82
2023/09/05 08:03:22;;;;;;;73.40;18.47;;;21.40;1.00;;;;;;4910218;29;20406;-83
2023/09/05 08:05:50;;;;;;;76.07;22.57;;;21.40;1.00;;;;;;4928154;29;20423;-83
2023/09/05 08:08:16;;;;;;;76.83;19.07;;;21.40;1.00;;;;;;4914604;29;20415;-83
2023/09/05 08:10:42;;;;;;;70.60;11.53;;;21.50;1.00;;;;;;4911758;29;20513;-83
2023/09/05 08:13:10;;;;;;;73.07;11.63;;;21.60;1.00;;;;;;4911113;29;20261;-83
2023/09/05 08:15:36;;;;;;;72.50;10.53;;;21.60;1.00;;;;;;4926544;29;20455;-83
2023/09/05 08:18:03;;;;;;;72.23;12.57;;;21.70;1.00;;;;;;4927389;29;20479;-83
2023/09/05 08:20:29;;;;;;;72.97;10.87;;;21.70;1.00;;;;;;4910864;29;20430;-83
2023/09/05 08:22:55;;;;;;;71.83;9.30;;;21.80;1.00;;;;;;4911604;29;20415;-83
2023/09/05 08:25:24;;;;;;;69.93;7.40;;;21.80;1.00;;;;;;4926336;29;20474;-83
2023/09/05 08:27:50;;;;;;;73.30;10.67;;;21.90;1.00;;;;;;4911678;29;20279;-83
2023/09/05 08:30:16;;;;;;;70.73;7.97;;;22.00;1.00;;;;;;4911228;29;20439;-83
2023/09/05 08:32:43;;;;;;;69.83;6.50;;;22.10;1.00;;;;;;4932346;28;20988;-83
2023/09/05 08:35:09;;;;;;;72.03;6.80;;;22.10;1.00;;;;;;4983230;28;20435;-83
2023/09/05 08:37:38;;;;;;;70.30;6.70;;;22.20;1.00;;;;;;4988159;28;20498;-82
2023/09/05 08:40:04;;;;;;;70.43;7.30;;;22.20;1.00;;;;;;4988115;28;20431;-83
2023/09/05 08:42:35;;;;;;;70.73;8.57;;;22.30;1.00;;;;;;4986919;28;20403;-83
2023/09/05 08:45:02;;;;;;;72.90;10.70;;;22.30;1.00;;;;;;4986535;28;20395;-83
2023/09/05 08:47:31;;;;;;;73.10;8.67;;;22.40;1.00;;;;;;4986541;28;20407;-83
2023/09/05 08:50:00;;;;;;;73.03;12.40;;;22.50;1.00;;;;;;4969658;28;20439;-83
2023/09/05 08:52:29;;;;;;;71.40;11.77;;;22.60;1.00;;;;;;4987175;28;20442;-83
2023/09/05 08:54:56;;;;;;;73.70;12.90;;;22.70;1.00;;;;;;4987705;28;20446;-83
2023/09/05 08:57:24;;;;;;;76.60;26.90;;;22.80;1.00;;;;;;4987150;28;20438;-83
2023/09/05 08:59:50;;;;;;;81.30;27.43;;;22.90;1.00;;;;;;4986386;28;20970;-83
2023/09/05 09:02:16;;;;;;;78.50;29.40;;;23.00;1.00;;;;;;4970959;28;20407;-83
2023/09/05 09:04:52;;;;;;;80.30;35.10;;;23.10;1.00;;;;;;4989382;28;20164;-83
2023/09/05 09:07:24;;;;;;;80.23;32.07;;;23.20;1.00;;;;;;4986320;28;20407;-83
2023/09/05 09:09:50;;;;;;;78.60;32.23;;;23.30;1.00;;;;;;4986029;28;20423;-82
2023/09/05 09:12:15;;;;;;;81.40;33.70;;;23.30;1.00;;;;;;4986203;28;20410;-83
2023/09/05 09:14:43;;;;;;;75.73;22.97;;;23.40;1.00;;;;;;4986290;28;20172;-83
2023/09/05 09:17:10;;;;;;;76.77;22.10;;;23.40;1.00;;;;;;4987105;28;20179;-83
2023/09/05 09:19:38;;;;;;;75.33;15.80;;;23.50;1.00;;;;;;4987623;28;20404;-83
2023/09/05 09:22:05;;;;;;;74.20;18.13;;;23.50;1.00;;;;;;4987639;28;20418;-83
2023/09/05 09:24:39;;;;;;;77.83;25.17;;;23.60;1.00;;;;;;4989678;28;20403;-83
2023/09/05 09:27:06;;;;;;;77.07;20.17;;;23.70;1.00;;;;;;4966682;28;20416;-83
2023/09/05 09:29:34;;;;;;;73.40;15.30;;;23.80;1.00;;;;;;4986929;28;20411;-83
2023/09/05 09:32:06;;;;;;;73.00;10.90;;;23.90;1.00;;;;;;4990248;28;20418;-83
2023/09/05 09:34:35;;;;;;;72.67;8.70;;;24.00;1.00;;;;;;5003999;28;20422;-83
2023/09/05 09:37:01;;;;;;;69.50;6.30;;;24.10;1.00;;;;;;5003773;28;20477;-83
2023/09/05 09:39:29;;;;;;;70.60;7.40;;;24.20;1.00;;;;;;5005182;28;20421;-83
2023/09/05 09:41:59;;;;;;;69.77;5.90;;;24.20;1.00;;;;;;5004418;28;20407;-82
2023/09/05 09:44:34;;;;;;;69.13;4.77;;;24.30;1.00;;;;;;5003977;28;20406;-83
2023/09/05 09:47:01;;;;;;;69.53;5.00;;;24.40;1.00;;;;;;5004583;28;20402;-82
2023/09/05 09:49:29;;;;;;;71.47;5.47;;;24.50;1.00;;;;;;5001683;28;20478;-83
2023/09/05 09:51:57;;;;;;;71.97;7.50;;;24.50;1.00;;;;;;5002886;28;20932;-83
2023/09/05 09:54:34;;;;;;;70.10;8.13;;;24.60;1.00;;;;;;5005268;28;20403;-83
2023/09/05 09:57:04;;;;;;;71.60;4.30;;;24.80;1.00;;;;;;5005965;28;20505;-83
2023/09/05 09:59:35;;;;;;;69.20;4.30;;;24.90;1.00;;;;;;5006538;28;20406;-83
2023/09/05 10:02:07;;;;;;;69.20;4.00;;;25.00;1.00;;;;;;5005628;28;20383;-83
2023/09/05 10:04:35;;;;;;;71.10;4.20;;;25.20;1.00;;;;;;5009278;28;20391;-82
2023/09/05 10:07:07;;;;;;;71.23;4.07;;;25.30;1.00;;;;;;5007863;28;20918;-83
2023/09/05 10:09:40;;;;;;;68.90;4.33;;;25.40;1.00;;;;;;5006387;28;20410;-82
2023/09/05 10:12:07;;;;;;;74.57;5.07;;;25.40;1.00;;;;;;5008308;28;20406;-83
2023/09/05 10:14:35;;;;;;;69.93;4.13;;;25.40;1.00;;;;;;5008977;28;20430;-83
2023/09/05 10:17:02;;;;;;;69.47;4.33;;;25.60;1.00;;;;;;5010274;28;20437;-84
2023/09/05 10:19:29;;;;;;;69.07;3.50;;;25.80;1.00;;;;;;5007496;28;20406;-83
2023/09/05 10:21:57;;;;;;;69.37;3.80;;;25.90;1.00;;;;;;5007827;28;20459;-83
2023/09/05 10:24:24;;;;;;;69.00;3.83;;;25.90;1.00;;;;;;5006779;28;20402;-83
2023/09/05 10:26:53;;;;;;;68.30;3.30;;;25.80;1.00;;;;;;5006373;28;20410;-83
2023/09/05 10:29:42;;;;;;;78.23;4.43;;;26.00;1.00;;;;;;5008056;28;20433;-83
2023/09/05 10:32:08;;;;;;;70.43;3.93;;;26.20;1.00;;;;;;5001216;28;20501;-83
2023/09/05 10:34:54;;;;;;;69.90;4.13;;;26.20;1.00;;;;;;5006968;28;20403;-84
2023/09/05 10:37:39;;;;;;;68.90;3.77;;;26.30;1.00;;;;;;5007329;28;20453;-83
2023/09/05 10:40:09;;;;;;;68.70;3.63;;;26.40;1.00;;;;;;5007062;28;20521;-83
2023/09/05 10:42:41;;;;;;;73.23;4.20;;;26.50;1.00;;;;;;4990635;28;20517;-83
2023/09/05 10:45:22;;;;;;;69.07;4.10;;;26.70;1.00;;;;;;4990149;28;20403;-83
2023/09/05 10:47:49;;;;;;;70.97;4.20;;;26.80;1.00;;;;;;5006950;28;20399;-84
2023/09/05 10:50:19;;;;;;;69.83;5.17;;;26.80;1.00;;;;;;5083749;23;20497;-81
2023/09/05 10:52:49;;;;;;;69.60;4.70;;;26.80;1.00;;;;;;5018339;28;20413;-81
2023/09/05 10:55:32;;;;;;;71.20;4.87;;;26.80;1.00;;;;;;5019482;28;20889;-82
2023/09/05 10:57:58;;;;;;;73.30;4.27;;;26.80;1.00;;;;;;5019159;28;20386;-81
2023/09/05 11:00:26;;;;;;;69.67;4.20;;;27.00;1.00;;;;;;5019552;28;20961;-81
2023/09/05 11:02:56;;;;;;;68.97;4.00;;;27.20;1.00;;;;;;5017734;28;20415;-81
2023/09/05 11:05:27;;;;;;;69.50;3.50;;;27.20;1.00;;;;;;5018935;28;20854;-81
2023/09/05 11:07:55;;;;;;;69.07;3.40;;;27.10;1.00;;;;;;5019289;28;20936;-81
2023/09/05 11:10:31;;;;;;;68.83;3.30;;;27.30;1.00;;;;;;5018328;28;20775;-81
2023/09/05 11:13:08;;;;;;;69.67;3.20;;;27.40;1.00;;;;;;5019583;28;20389;-80
2023/09/05 11:15:36;;;;;;;69.97;3.30;;;27.50;1.00;;;;;;5019727;28;20767;-81
2023/09/05 11:18:05;;;;;;;69.17;3.20;;;27.70;1.00;;;;;;5018930;28;20489;-80
2023/09/05 11:20:50;;;;;;;69.17;4.00;;;27.70;1.00;;;;;;5018708;28;20426;-81
2023/09/05 11:23:17;;;;;;;68.60;3.13;;;27.70;1.00;;;;;;5017370;28;20398;-81
2023/09/05 11:25:48;;;;;;;68.60;3.00;;;27.80;1.00;;;;;;5018735;28;20492;-81
2023/09/05 11:28:15;;;;;;;70.50;3.07;;;27.90;1.00;;;;;;5018102;28;20432;-81
2023/09/05 11:30:43;;;;;;;69.57;4.30;;;28.10;1.00;;;;;;5018619;28;20418;-81
2023/09/05 11:33:10;;;;;;;69.40;3.20;;;28.30;1.00;;;;;;5018594;28;20421;-81
2023/09/05 11:35:38;;;;;;;70.60;3.33;;;28.40;1.00;;;;;;5018170;28;20451;-81
2023/09/05 11:38:04;;;;;;;71.63;3.10;;;28.30;1.00;;;;;;5018675;28;20410;-81
2023/09/05 11:40:30;;;;;;;68.50;3.07;;;28.30;1.00;;;;;;5018231;28;20451;-81
2023/09/05 11:43:06;;;;;;;68.97;3.30;;;28.40;1.00;;;;;;5018945;28;20430;-81
2023/09/05 11:45:33;;;;;;;69.73;3.17;;;28.60;1.00;;;;;;5018811;28;20754;-81
2023/09/05 11:48:00;;;;;;;69.33;2.90;;;28.80;1.00;;;;;;5018201;28;20402;-81
2023/09/05 11:50:26;;;;;;;69.93;3.63;;;28.90;1.00;;;;;;5016637;28;20814;-81
2023/09/05 11:52:53;;;;;;;69.63;3.50;;;28.80;1.00;;;;;;5019114;28;20434;-81
2023/09/05 11:55:23;;;;;;;69.40;3.20;;;28.70;1.00;;;;;;5017999;28;20770;-81
2023/09/05 11:57:54;;;;;;;69.20;2.90;;;28.80;1.00;;;;;;5018045;28;21000;-81
2023/09/05 12:00:21;;;;;;;69.60;2.87;;;28.90;1.00;;;;;;5018208;28;20519;-81
2023/09/05 12:02:54;;;;;;;68.83;2.90;;;28.90;1.00;;;;;;5016859;28;20416;-81
2023/09/05 12:05:20;;;;;;;69.17;3.10;;;29.00;1.00;;;;;;5016912;28;20437;-81
2023/09/05 12:07:53;;;;;;;68.67;2.90;;;29.10;1.00;;;;;;5018401;28;20494;-82
2023/09/05 12:10:19;;;;;;;70.03;2.57;;;29.30;1.00;;;;;;5018158;28;20186;-81
2023/09/05 12:12:59;;;;;;;68.27;3.20;;;29.40;1.00;;;;;;5018259;28;20424;-81
2023/09/05 12:15:31;;;;;;;68.57;3.20;;;29.40;1.00;;;;;;5017774;28;20522;-81
2023/09/05 12:18:03;;;;;;;70.20;2.83;;;29.20;1.00;;;;;;5017354;28;20492;-81
2023/09/05 12:20:30;;;;;;;68.43;2.73;;;29.40;1.00;;;;;;5017863;28;20450;-81
2023/09/05 12:22:55;;;;;;;68.90;2.80;;;29.50;1.00;;;;;;5017690;28;20405;-81
2023/09/05 12:25:24;;;;;;;68.80;2.77;;;29.60;1.00;;;;;;5017181;28;20885;-81
2023/09/05 12:27:55;;;;;;;69.10;3.10;;;29.70;1.00;;;;;;5017978;28;20176;-81
2023/09/05 12:30:33;;;;;;;77.43;2.60;;;29.80;1.00;;;;;;5016378;28;20457;-81
2023/09/05 12:33:01;;;;;;;71.20;3.30;;;29.70;1.00;;;;;;5017716;28;20930;-81
2023/09/05 12:35:28;;;;;;;68.80;2.70;;;29.60;1.00;;;;;;5017994;28;20537;-81
2023/09/05 12:37:55;;;;;;;70.30;3.13;;;29.50;1.00;;;;;;5017930;28;20415;-81
2023/09/05 12:40:23;;;;;;;69.53;4.37;;;29.50;1.00;;;;;;5017225;28;20427;-82
2023/09/05 12:42:49;;;;;;;69.60;2.80;;;29.50;1.00;;;;;;5018043;28;20412;-82
2023/09/05 12:45:16;;;;;;;69.93;3.20;;;29.60;1.00;;;;;;5016693;28;20415;-81
2023/09/05 12:47:52;;;;;;;70.00;3.73;;;29.80;1.00;;;;;;5017665;28;20412;-81
2023/09/05 12:50:45;;;;;;;68.10;2.63;;;30.00;1.00;;;;;;5017412;28;20434;-82
2023/09/05 12:53:10;;;;;;;69.50;2.83;;;29.90;1.00;;;;;;5017358;28;20443;-82
2023/09/05 12:55:37;;;;;;;68.67;3.30;;;29.90;1.00;;;;;;5017684;28;20477;-81
2023/09/05 12:58:04;;;;;;;69.17;3.13;;;30.00;1.00;;;;;;5016497;28;20420;-82
2023/09/05 13:00:32;;;;;;;70.00;3.60;;;30.00;1.00;;;;;;5017185;28;20447;-82
2023/09/05 13:02:58;;;;;;;69.20;2.80;;;29.80;1.00;;;;;;5017585;28;20409;-81
2023/09/05 13:05:24;;;;;;;69.70;3.17;;;29.90;1.00;;;;;;5017796;28;20764;-82
2023/09/05 13:07:49;;;;;;;70.83;3.50;;;30.00;1.00;;;;;;5017728;28;20176;-81
2023/09/05 13:10:15;;;;;;;69.20;3.37;;;30.00;1.00;;;;;;5016247;28;20444;-82
2023/09/05 13:12:41;;;;;;;70.17;3.10;;;30.10;1.00;;;;;;5017646;28;20578;-82
2023/09/05 13:15:08;;;;;;;69.00;4.50;;;30.10;1.00;;;;;;5017392;28;20181;-82